createdAt,value
2019-06-08T00:01:55.804Z,77.74
2019-06-08T00:04:29.730Z,77.81
2019-06-08T00:06:59.208Z,77.79
2019-06-08T00:09:27.931Z,77.72
2019-06-08T00:12:03.100Z,77.79
2019-06-08T00:14:36.064Z,77.82
2019-06-08T00:17:06.760Z,77.77
2019-06-08T00:19:38.504Z,77.74
2019-06-08T00:22:08.424Z,77.85
2019-06-08T00:24:37.117Z,77.77
2019-06-08T00:27:08.521Z,77.75
2019-06-08T00:29:37.307Z,77.72
2019-06-08T00:32:08.729Z,77.74
2019-06-08T00:34:40.447Z,77.75
2019-06-08T00:37:12.071Z,77.69
2019-06-08T00:39:48.132Z,77.56
2019-06-08T00:42:19.262Z,77.49
2019-06-08T00:44:50.853Z,77.46
2019-06-08T00:52:58.810Z,77.43
2019-06-08T00:55:29.855Z,77.37
2019-06-08T00:58:14.904Z,77.32
2019-06-08T01:00:44.962Z,77.33
2019-06-08T01:03:19.604Z,77.35
2019-06-08T01:05:48.481Z,77.26
2019-06-08T01:08:25.513Z,77.24
2019-06-08T01:11:06.311Z,77.21
2019-06-08T01:13:35.014Z,77.19
2019-06-08T01:16:08.133Z,77.17
2019-06-08T01:18:37.312Z,77.11
2019-06-08T01:21:07.205Z,77.08
2019-06-08T01:23:38.267Z,77.07
2019-06-08T01:26:07.284Z,77.03
2019-06-08T01:28:35.936Z,77.04
2019-06-08T01:31:04.721Z,77.06
2019-06-08T01:33:34.164Z,77.09
2019-06-08T01:36:02.944Z,77.13
2019-06-08T01:38:32.479Z,77.12
2019-06-08T01:41:01.269Z,77.19
2019-06-08T01:43:31.825Z,77.18
2019-06-08T01:46:00.593Z,77.18
2019-06-08T01:48:32.822Z,77.11
2019-06-08T01:51:02.143Z,77.09
2019-06-08T01:53:34.568Z,77.16
2019-06-08T01:56:03.218Z,77.22
2019-06-08T02:01:23.523Z,77.31
2019-06-08T02:03:54.389Z,77.34
2019-06-08T02:06:28.424Z,77.37
2019-06-08T02:09:00.137Z,77.39
2019-06-08T02:11:44.237Z,77.37
2019-06-08T02:14:13.019Z,77.37
2019-06-08T02:16:47.588Z,77.36
2019-06-08T02:19:21.880Z,77.46
2019-06-08T02:21:51.678Z,77.57
2019-06-08T02:24:21.836Z,77.72
2019-06-08T02:26:55.967Z,77.86
2019-06-08T02:29:24.616Z,77.99
2019-06-08T02:31:53.260Z,78.10
2019-06-08T02:34:23.417Z,78.20
2019-06-08T02:36:52.105Z,78.26
2019-06-08T02:39:21.925Z,78.31
2019-06-08T02:41:50.631Z,78.29
2019-06-08T02:44:21.502Z,78.31
2019-06-08T02:46:50.210Z,78.32
2019-06-08T02:49:21.174Z,78.32
2019-06-08T02:51:50.424Z,78.33
2019-06-08T02:54:23.357Z,78.35
2019-06-08T02:56:56.043Z,78.37
2019-06-08T02:59:29.217Z,78.35
2019-06-08T03:02:00.522Z,78.37
2019-06-08T03:04:32.423Z,78.36
2019-06-08T03:07:03.761Z,78.27
2019-06-08T03:09:38.626Z,78.16
2019-06-08T03:12:14.529Z,78.09
2019-06-08T03:14:44.947Z,78.10
2019-06-08T03:17:14.189Z,78.06
2019-06-08T03:19:49.022Z,78.03
2019-06-08T03:22:19.686Z,78.05
2019-06-08T03:24:52.465Z,77.98
2019-06-08T03:27:22.165Z,77.99
2019-06-08T03:29:50.808Z,77.91
2019-06-08T03:32:22.751Z,77.85
2019-06-08T03:34:56.289Z,77.88
2019-06-08T03:37:21.685Z,77.87
2019-06-08T03:39:55.450Z,77.88
2019-06-08T03:42:29.376Z,77.92
2019-06-08T03:44:58.029Z,77.95
2019-06-08T03:47:32.188Z,78.00
2019-06-08T03:50:00.787Z,77.97
2019-06-08T03:52:29.427Z,77.97
2019-06-08T03:54:58.914Z,78.00
2019-06-08T03:57:30.807Z,78.01
2019-06-08T04:00:02.333Z,78.01
2019-06-08T04:02:31.629Z,78.01
2019-06-08T04:05:00.985Z,78.04
2019-06-08T04:07:29.563Z,78.05
2019-06-08T04:10:00.259Z,78.00
2019-06-08T04:12:29.332Z,77.99
2019-06-08T04:14:58.009Z,77.89
2019-06-08T04:17:32.632Z,77.80
2019-06-08T04:20:11.646Z,77.77
2019-06-08T04:22:44.459Z,77.71
2019-06-08T04:25:16.108Z,77.59
2019-06-08T04:27:57.996Z,77.54
2019-06-08T04:30:34.057Z,77.59
2019-06-08T04:33:05.578Z,77.60
2019-06-08T04:35:42.682Z,77.50
2019-06-08T04:38:13.123Z,77.49
2019-06-08T04:40:48.498Z,77.43
2019-06-08T04:43:17.550Z,77.35
2019-06-08T04:45:49.780Z,77.21
2019-06-08T04:48:22.435Z,77.19
2019-06-08T04:50:54.126Z,77.12
2019-06-08T04:53:22.711Z,77.09
2019-06-08T04:55:52.977Z,77.01
2019-06-08T04:58:21.720Z,76.95
2019-06-08T05:00:55.888Z,76.92
2019-06-08T05:03:24.646Z,76.86
2019-06-08T05:06:00.838Z,76.81
2019-06-08T05:08:30.090Z,76.76
2019-06-08T05:11:02.110Z,76.69
2019-06-08T05:13:33.083Z,76.66
2019-06-08T05:16:10.355Z,76.58
2019-06-08T05:18:49.715Z,76.49
2019-06-08T05:27:59.563Z,75.99
2019-06-08T05:30:37.063Z,75.87
2019-06-08T05:33:05.844Z,75.53
2019-06-08T05:35:37.323Z,75.54
2019-06-08T05:38:05.984Z,75.58
2019-06-08T05:40:37.918Z,75.42
2019-06-08T05:43:09.969Z,75.30
2019-06-08T05:45:41.871Z,75.28
2019-06-08T05:48:10.479Z,75.27
2019-06-08T05:50:55.853Z,75.27
2019-06-08T05:53:10.412Z,75.21
2019-06-08T05:55:42.132Z,75.08
2019-06-08T05:58:12.808Z,74.90
2019-06-08T06:00:52.989Z,74.87
2019-06-08T06:03:21.672Z,74.93
2019-06-08T06:05:50.857Z,74.94
2019-06-08T06:08:20.470Z,74.95
2019-06-08T06:10:50.811Z,74.93
2019-06-08T06:13:21.353Z,74.93
2019-06-08T06:15:56.245Z,74.72
2019-06-08T06:18:26.380Z,74.63
2019-06-08T06:21:09.820Z,74.57
2019-06-08T06:23:27.437Z,74.48
2019-06-08T06:25:57.627Z,74.27
2019-06-08T06:28:26.277Z,74.07
2019-06-08T06:30:54.929Z,74.06
2019-06-08T06:33:25.607Z,73.86
2019-06-08T06:35:55.817Z,73.73
2019-06-08T06:38:24.572Z,73.67
2019-06-08T06:40:55.033Z,73.52
2019-06-08T06:43:32.084Z,73.29
2019-06-08T06:46:04.208Z,73.05
2019-06-08T06:48:33.689Z,72.79
2019-06-08T06:51:02.555Z,72.65
2019-06-08T06:53:34.237Z,72.78
2019-06-08T06:56:02.885Z,72.90
2019-06-08T06:58:35.150Z,72.95
2019-06-08T07:01:06.469Z,73.04
2019-06-08T07:03:38.310Z,73.08
2019-06-08T07:06:12.611Z,73.08
2019-06-08T07:08:46.196Z,73.07
2019-06-08T07:11:17.664Z,73.11
2019-06-08T07:13:55.135Z,73.11
2019-06-08T07:16:28.449Z,73.10
2019-06-08T07:18:59.148Z,73.08
2019-06-08T07:21:40.954Z,73.01
2019-06-08T07:24:24.103Z,72.89
2019-06-08T07:26:59.737Z,72.75
2019-06-08T07:29:29.871Z,72.63
2019-06-08T07:31:59.374Z,72.55
2019-06-08T07:34:33.359Z,72.55
2019-06-08T07:37:01.971Z,72.67
2019-06-08T07:39:39.063Z,72.63
2019-06-08T07:45:40.766Z,72.36
2019-06-08T07:48:09.440Z,71.29
2019-06-08T07:50:41.244Z,70.22
2019-06-08T07:53:11.074Z,69.39
2019-06-08T07:55:45.431Z,69.23
2019-06-08T07:58:17.240Z,68.96
2019-06-08T08:00:52.560Z,67.91
2019-06-08T08:03:20.940Z,66.36
2019-06-08T08:06:16.589Z,66.36
2019-06-08T08:08:48.441Z,65.58
2019-06-08T08:11:50.953Z,64.54
2019-06-08T08:14:26.949Z,63.62
2019-06-08T08:20:53.180Z,61.93
2019-06-08T08:34:59.224Z,60.23
2019-06-08T08:37:40.107Z,59.85
2019-06-08T08:40:11.128Z,59.54
2019-06-08T08:43:01.539Z,59.19
2019-06-08T08:45:29.455Z,59.15
2019-06-08T08:48:20.072Z,58.88
2019-06-08T08:50:38.281Z,58.77
2019-06-08T08:53:23.250Z,59.18
2019-06-08T08:55:52.342Z,59.47
2019-06-08T08:58:23.142Z,59.73
2019-06-08T09:01:00.124Z,59.79
2019-06-08T09:03:40.944Z,59.99
2019-06-08T09:06:10.288Z,60.16
2019-06-08T09:08:42.855Z,60.32
2019-06-08T09:11:13.922Z,60.34
2019-06-08T09:13:44.901Z,60.33
2019-06-08T09:16:13.661Z,60.55
2019-06-08T09:18:47.850Z,60.38
2019-06-08T09:21:18.598Z,60.46
2019-06-08T09:24:00.800Z,60.68
2019-06-08T09:26:31.418Z,60.85
2019-06-08T09:29:04.861Z,60.88
2019-06-08T09:31:33.485Z,60.75
2019-06-08T09:34:15.035Z,60.67
2019-06-08T09:36:47.800Z,60.40
2019-06-08T09:39:20.297Z,60.09
2019-06-08T09:41:50.933Z,60.02
2019-06-08T09:44:30.844Z,59.92
2019-06-08T09:47:04.607Z,59.86
2019-06-08T09:49:30.176Z,59.89
2019-06-08T09:52:05.140Z,60.12
2019-06-08T09:54:41.497Z,60.53
2019-06-08T09:57:18.820Z,60.71
2019-06-08T09:59:54.741Z,61.31
2019-06-08T10:02:28.339Z,61.31
2019-06-08T10:05:00.550Z,61.41
2019-06-08T10:10:31.820Z,61.28
2019-06-08T10:13:05.386Z,61.19
2019-06-08T10:15:33.912Z,61.00
2019-06-08T10:18:03.342Z,60.77
2019-06-08T10:20:34.651Z,60.59
2019-06-08T10:23:06.421Z,60.58
2019-06-08T10:25:38.534Z,60.58
2019-06-08T10:28:14.042Z,60.55
2019-06-08T10:30:50.770Z,60.07
2019-06-08T10:33:22.352Z,59.74
2019-06-08T10:35:55.720Z,59.31
2019-06-08T10:38:28.959Z,59.23
2019-06-08T10:41:14.807Z,59.23
2019-06-08T10:43:34.234Z,59.11
2019-06-08T10:46:10.023Z,59.28
2019-06-08T10:48:50.633Z,59.46
2019-06-08T10:51:19.380Z,59.50
2019-06-08T10:53:53.233Z,59.46
2019-06-08T10:56:24.996Z,59.43
2019-06-08T10:58:55.079Z,59.45
2019-06-08T11:01:29.562Z,59.70
2019-06-08T11:04:07.167Z,59.88
2019-06-08T11:06:40.763Z,59.84
2019-06-08T11:09:14.865Z,59.76
2019-06-08T11:11:48.183Z,59.21
2019-06-08T11:14:22.919Z,59.09
2019-06-08T11:17:19.491Z,59.10
2019-06-08T11:22:53.016Z,58.85
2019-06-08T11:25:23.172Z,58.59
2019-06-08T11:27:52.256Z,58.71
2019-06-08T11:30:29.827Z,58.88
2019-06-08T11:32:57.760Z,58.85
2019-06-08T11:35:28.620Z,58.85
2019-06-08T11:38:00.209Z,58.91
2019-06-08T11:40:32.446Z,59.05
2019-06-08T11:43:04.596Z,58.96
2019-06-08T11:45:37.999Z,58.84
2019-06-08T11:48:08.631Z,58.70
2019-06-08T11:50:42.741Z,58.90
2019-06-08T11:53:14.857Z,58.97
2019-06-08T11:55:44.866Z,59.20
2019-06-08T11:58:30.780Z,59.03
2019-06-08T12:01:11.655Z,58.58
2019-06-08T12:03:38.725Z,58.41
2019-06-08T12:06:14.633Z,58.27
2019-06-08T12:08:43.782Z,58.16
2019-06-08T12:11:19.694Z,58.16
2019-06-08T12:13:48.425Z,58.23
2019-06-08T12:16:21.915Z,58.37
2019-06-08T12:18:49.524Z,58.33
2019-06-08T12:21:18.751Z,58.31
2019-06-08T12:23:50.761Z,58.47
2019-06-08T12:26:21.402Z,58.41
2019-06-08T12:28:50.354Z,58.48
2019-06-08T12:31:40.098Z,58.51
2019-06-08T12:34:11.110Z,58.52
2019-06-08T12:36:42.979Z,58.58
2019-06-08T12:39:12.065Z,58.56
2019-06-08T12:41:40.914Z,58.41
2019-06-08T12:44:14.680Z,58.72
2019-06-08T12:46:44.863Z,58.83
2019-06-08T12:49:18.816Z,58.61
2019-06-08T12:51:51.732Z,58.21
2019-06-08T12:54:21.021Z,58.15
2019-06-08T12:56:53.128Z,58.23
2019-06-08T12:59:23.105Z,58.31
2019-06-08T13:01:58.654Z,58.48
2019-06-08T13:04:30.214Z,58.37
2019-06-08T13:07:01.599Z,58.42
2019-06-08T13:09:30.533Z,58.62
2019-06-08T13:12:01.855Z,58.66
2019-06-08T13:14:30.930Z,58.54
2019-06-08T13:17:02.065Z,58.39
2019-06-08T13:19:31.480Z,58.48
2019-06-08T13:22:00.143Z,58.37
2019-06-08T13:24:33.460Z,58.63
2019-06-08T13:27:05.041Z,58.76
2019-06-08T13:29:36.649Z,58.90
2019-06-08T13:32:09.814Z,58.85
2019-06-08T13:34:40.326Z,58.73
2019-06-08T13:37:10.585Z,58.37
2019-06-08T13:39:39.736Z,58.31
2019-06-08T13:42:11.280Z,58.15
2019-06-08T13:44:40.050Z,58.11
2019-06-08T13:47:12.526Z,58.11
2019-06-08T13:49:41.888Z,58.06
2019-06-08T13:52:10.575Z,58.06
2019-06-08T13:54:41.124Z,58.16
2019-06-08T13:57:09.788Z,58.18
2019-06-08T13:59:38.988Z,58.24
2019-06-08T14:02:11.019Z,58.39
2019-06-08T14:04:46.125Z,58.28
2019-06-08T14:07:22.996Z,58.20
2019-06-08T14:09:51.261Z,58.16
2019-06-08T14:12:24.034Z,58.04
2019-06-08T14:14:53.152Z,57.90
2019-06-08T14:17:25.358Z,58.03
2019-06-08T14:19:55.639Z,57.90
2019-06-08T14:22:28.495Z,57.67
2019-06-08T14:24:57.611Z,57.57
2019-06-08T14:27:28.553Z,57.72
2019-06-08T14:29:58.410Z,57.69
2019-06-08T14:32:34.602Z,57.79
2019-06-08T14:35:03.420Z,57.84
2019-06-08T14:37:33.896Z,57.97
2019-06-08T14:40:14.169Z,58.02
2019-06-08T14:42:44.311Z,57.93
2019-06-08T14:45:19.654Z,58.15
2019-06-08T14:47:48.823Z,58.03
2019-06-08T14:50:19.484Z,57.85
2019-06-08T14:52:52.554Z,57.90
2019-06-08T14:55:24.743Z,58.04
2019-06-08T14:58:00.093Z,58.02
2019-06-08T15:00:29.718Z,57.73
2019-06-08T15:02:59.483Z,57.71
2019-06-08T15:05:32.133Z,57.82
2019-06-08T15:08:13.374Z,57.85
2019-06-08T15:10:44.154Z,57.60
2019-06-08T15:13:12.758Z,57.57
2019-06-08T15:15:43.060Z,57.62
2019-06-08T15:18:18.550Z,57.61
2019-06-08T15:20:51.854Z,57.59
2019-06-08T15:23:28.938Z,57.44
2019-06-08T15:25:58.308Z,57.38
2019-06-08T15:28:31.534Z,57.53
2019-06-08T15:31:00.062Z,57.50
2019-06-08T15:33:33.761Z,57.32
2019-06-08T15:36:03.625Z,57.27
2019-06-08T15:38:38.043Z,57.31
2019-06-08T15:41:07.798Z,57.41
2019-06-08T15:43:40.381Z,57.52
2019-06-08T15:46:09.607Z,57.52
2019-06-08T15:48:40.822Z,57.62
2019-06-08T15:51:11.859Z,57.91
2019-06-08T15:53:43.351Z,58.15
2019-06-08T15:56:14.704Z,58.20
2019-06-08T15:58:43.352Z,57.89
2019-06-08T16:01:14.841Z,57.91
2019-06-08T16:03:50.438Z,57.93
2019-06-08T16:06:18.992Z,57.97
2019-06-08T16:08:48.403Z,58.02
2019-06-08T16:11:21.455Z,58.13
2019-06-08T16:13:50.083Z,58.29
2019-06-08T16:16:20.058Z,58.19
2019-06-08T16:18:49.180Z,57.96
2019-06-08T16:21:18.760Z,57.83
2019-06-08T16:23:48.339Z,57.62
2019-06-08T16:26:17.207Z,57.59
2019-06-08T16:28:47.773Z,57.58
2019-06-08T16:31:16.599Z,57.64
2019-06-08T16:33:55.889Z,57.60
2019-06-08T16:36:36.065Z,57.64
2019-06-08T16:39:08.387Z,57.72
2019-06-08T16:41:37.750Z,57.92
2019-06-08T16:44:07.505Z,57.93
2019-06-08T16:46:43.985Z,58.04
2019-06-08T16:49:12.602Z,58.25
2019-06-08T16:51:41.836Z,58.27
2019-06-08T16:54:17.765Z,58.45
2019-06-08T16:56:46.420Z,58.58
2019-06-08T16:59:15.146Z,58.54
2019-06-08T17:01:44.959Z,58.47
2019-06-08T17:04:15.603Z,58.32
2019-06-08T17:09:32.522Z,58.12
2019-06-08T17:12:06.837Z,58.19
2019-06-08T17:14:38.754Z,58.12
2019-06-08T17:17:08.488Z,58.30
2019-06-08T17:19:38.411Z,58.27
2019-06-08T17:22:15.965Z,58.26
2019-06-08T17:24:44.772Z,58.46
2019-06-08T17:27:26.404Z,58.52
2019-06-08T17:29:44.021Z,58.67
2019-06-08T17:32:15.289Z,58.72
2019-06-08T17:34:50.218Z,58.75
2019-06-08T17:37:20.772Z,58.80
2019-06-08T17:39:51.699Z,58.85
2019-06-08T17:42:20.455Z,58.75
2019-06-08T17:44:51.197Z,58.77
2019-06-08T17:47:24.062Z,58.68
2019-06-08T17:49:56.085Z,58.57
2019-06-08T17:52:27.236Z,58.66
2019-06-08T17:54:59.314Z,58.70
2019-06-08T17:57:49.456Z,58.77
2019-06-08T18:00:14.687Z,58.74
2019-06-08T18:02:49.191Z,58.69
2019-06-08T18:05:20.944Z,58.57
2019-06-08T18:07:53.418Z,58.73
2019-06-08T18:10:23.687Z,58.82
2019-06-08T18:12:55.055Z,58.69
2019-06-08T18:15:28.382Z,58.78
2019-06-08T18:17:57.834Z,58.75
2019-06-08T18:20:28.481Z,58.59
2019-06-08T18:22:58.774Z,58.58
2019-06-08T18:25:27.903Z,58.53
2019-06-08T18:28:09.240Z,58.63
2019-06-08T18:30:29.566Z,58.84
2019-06-08T18:32:58.313Z,58.81
2019-06-08T18:35:34.622Z,58.94
2019-06-08T18:38:07.301Z,59.01
2019-06-08T18:40:40.165Z,59.16
2019-06-08T18:43:09.869Z,59.29
2019-06-08T18:45:40.915Z,59.43
2019-06-08T18:48:11.164Z,59.72
2019-06-08T18:50:41.011Z,59.82
2019-06-08T18:53:10.895Z,59.74
2019-06-08T18:55:41.579Z,59.96
2019-06-08T18:58:21.096Z,59.93
2019-06-08T19:00:50.008Z,60.02
2019-06-08T19:03:20.299Z,60.18
2019-06-08T19:05:50.524Z,60.27
2019-06-08T19:08:23.553Z,60.38
2019-06-08T19:10:52.765Z,60.70
2019-06-08T19:13:21.624Z,60.86
2019-06-08T19:15:59.634Z,60.91
2019-06-08T19:18:29.657Z,61.15
2019-06-08T19:21:01.823Z,61.11
2019-06-08T19:23:34.586Z,60.87
2019-06-08T19:26:04.951Z,60.45
2019-06-08T19:28:38.756Z,60.26
2019-06-08T19:31:12.913Z,60.23
2019-06-08T19:33:52.661Z,60.16
2019-06-08T19:36:18.109Z,60.12
2019-06-08T19:38:54.514Z,60.18
2019-06-08T19:41:20.055Z,60.32
2019-06-08T19:43:54.551Z,60.42
2019-06-08T19:46:27.015Z,60.50
2019-06-08T19:48:58.956Z,60.60
2019-06-08T19:51:28.495Z,60.56
2019-06-08T19:53:59.168Z,60.69
2019-06-08T19:56:31.579Z,60.80
2019-06-08T19:59:08.375Z,61.29
2019-06-08T20:01:37.942Z,61.29
2019-06-08T20:04:10.421Z,61.46
2019-06-08T20:06:45.540Z,61.55
2019-06-08T20:09:17.910Z,61.61
2019-06-08T20:11:52.558Z,61.68
2019-06-08T20:14:19.195Z,61.64
2019-06-08T20:16:49.621Z,61.86
2019-06-08T20:19:18.991Z,62.05
2019-06-08T20:21:51.575Z,62.33
2019-06-08T20:24:27.698Z,62.59
2019-06-08T20:26:57.723Z,62.63
2019-06-08T20:29:28.274Z,62.63
2019-06-08T20:31:58.237Z,62.69
2019-06-08T20:34:31.238Z,62.91
2019-06-08T20:37:01.534Z,62.80
2019-06-08T20:39:38.299Z,62.95
2019-06-08T20:42:11.873Z,63.22
2019-06-08T20:44:38.918Z,63.18
2019-06-08T20:47:13.938Z,63.33
2019-06-08T20:49:53.475Z,63.34
2019-06-08T20:52:25.154Z,63.34
2019-06-08T20:54:54.184Z,63.45
2019-06-08T20:57:29.178Z,63.47
2019-06-08T20:59:59.502Z,63.55
2019-06-08T21:06:12.676Z,63.69
2019-06-08T21:08:44.040Z,63.77
2019-06-08T21:11:14.394Z,63.67
2019-06-08T21:13:52.201Z,63.67
2019-06-08T21:16:38.308Z,63.68
2019-06-08T21:19:12.888Z,63.65
2019-06-08T21:21:45.623Z,63.82
2019-06-08T21:24:14.647Z,64.00
2019-06-08T21:26:50.785Z,64.02
2019-06-08T21:29:19.109Z,64.08
2019-06-08T21:31:52.248Z,64.32
2019-06-08T21:34:20.288Z,64.40
2019-06-08T21:36:49.877Z,64.37
2019-06-08T21:39:36.693Z,64.37
2019-06-08T21:42:14.098Z,64.56
2019-06-08T21:44:43.529Z,64.70
2019-06-08T21:47:12.419Z,64.98
2019-06-08T21:49:47.517Z,64.99
2019-06-08T21:52:18.368Z,65.17
2019-06-08T21:54:50.503Z,65.14
2019-06-08T21:57:30.160Z,65.17
2019-06-08T22:00:34.629Z,65.12
2019-06-08T22:02:48.011Z,65.22
2019-06-08T22:05:17.179Z,65.36
2019-06-08T22:07:50.062Z,65.37
2019-06-08T22:10:18.856Z,65.27
2019-06-08T22:12:53.811Z,65.19
2019-06-08T22:15:22.904Z,65.19
2019-06-08T22:18:00.135Z,65.13
2019-06-08T22:20:27.903Z,65.15
2019-06-08T22:23:03.717Z,65.21
2019-06-08T22:25:33.349Z,65.42
2019-06-08T22:28:07.028Z,65.45
2019-06-08T22:30:42.753Z,65.42
2019-06-08T22:33:09.624Z,65.38
2019-06-08T22:35:38.849Z,65.36
2019-06-08T22:38:08.397Z,65.22
2019-06-08T22:40:39.950Z,65.26
2019-06-08T22:43:08.600Z,65.31
2019-06-08T22:45:43.462Z,65.41
2019-06-08T22:48:12.181Z,65.40
2019-06-08T22:50:42.724Z,65.46
2019-06-08T22:53:13.202Z,65.32
2019-06-08T22:55:43.308Z,65.22
2019-06-08T22:58:13.720Z,65.11
2019-06-08T23:00:52.462Z,64.98
2019-06-08T23:03:18.805Z,65.10
2019-06-08T23:05:59.181Z,65.25
2019-06-08T23:11:19.062Z,65.71
2019-06-08T23:13:52.109Z,66.20
2019-06-08T23:16:28.556Z,66.49
2019-06-08T23:19:00.612Z,66.76
2019-06-08T23:21:34.008Z,67.11
2019-06-08T23:24:12.630Z,67.44
2019-06-08T23:26:48.051Z,67.85
2019-06-08T23:29:19.922Z,68.25
2019-06-08T23:31:52.433Z,68.58
2019-06-08T23:34:23.177Z,68.77
2019-06-08T23:36:58.619Z,68.96
2019-06-08T23:39:24.489Z,69.04
2019-06-08T23:42:08.036Z,69.19
2019-06-08T23:44:41.096Z,69.29
2019-06-08T23:47:12.630Z,69.49
2019-06-08T23:49:41.296Z,69.58
2019-06-08T23:52:11.785Z,69.53
2019-06-08T23:54:47.786Z,69.43
2019-06-08T23:57:18.436Z,69.39
2019-06-08T23:59:47.801Z,69.37
